Glacier Bay National Park, AK

2:15 PM AKDT on April 25, 2015 (GMT -0800)
Elfin Cove | | Change Station
CLOSE
Current Station
Airport
Location: Elfin Cove,
Elevation: 0 ft
Nearby Weather Stations

Elev 0 ft 58.20 °N, 136.35 °W | Updated 1 hour ago

Partly Cloudy
Partly Cloudy
55 °F
Feels Like 55 °F
N
12
Wind Variable Wind from East
Gusts 23 mph

Today
High -- | Low -- °F
--% Chance of Precip.
Yesterday
High -- | Low -- °F
Precip. -- in
5:27 AM 8:45 PM
Waxing Crescent, 49% visible
Pressure 29.84 in
Visibility 25.0 miles
Clouds Few 5000 ft
Few 20000 ft
Dew Point 36 °F
Humidity 47%
Rainfall 0.00 in
Snow Depth Not available.
UV 6 out of 12
Pollen Not available.
Air Quality Not available.
Flu Activity Sporadic
METAR PAEL 252052Z 10010G20KT 25SM FEW050 FEW200 13/02 A2984 RMK SPB E01015G25KT NOSPECI

More Conditions Fewer Conditions

Pressure 29.84 in
Visibility 25.0 miles
Clouds Few 5000 ft
Few 20000 ft
Dew Point 36 °F
Humidity 47%
Rainfall 0.00 in
Snow Depth Not available.
UV 6 out of 12
Pollen Not available.
Air Quality Not available.
Flu Activity Sporadic
METAR PAEL 252052Z 10010G20KT 25SM FEW050 FEW200 13/02 A2984 RMK SPB E01015G25KT NOSPECI

More Conditions Fewer Conditions

10-Day Weather Forecast

Almanac

Astronomy

Apr. 25, 2015 Rise Set
Actual Time
Civil Twilight
Nautical Twilight
Astronomical Twilight
Moon
Length of Visible Light
Length of Day
Tomorrow will be .
, % of the Moon is Illuminated

Today's Extremes

State Highs State Lows

Community

WunderPhotos

Upload Photos

1,816,827 photos uploaded!

WunderBlogs® & News

Nearby

Air Quality

  Air Quality AQ Index Pollutant
Not available.

Snow Depth

Station Depth Elevation

Earthquake Activity

City Distance Mag. Time & Date
Minimum magnitude displayed is 2.5.

Coastal Water Temperatures

Place Temperature

Stations

Nearby Weather Stations

Station Location Temp. Windchill Dew Point Humidity Wind Precip. Elev Updated Type